Overview Statistics Trail Chart Weather Telemetry Raw packets
 

This is the latest recevied weather packets stored in our database for station/object KF7SOJ. If no packets are shown the sender has not sent any weather packets the latest 10 day(s).

<< 90 91 92 93 94 95 96 >>
Time Temp. Humidity Pressure Rain* Wind** Luminosity Snow
1787947213 23.33° C 53% 933.4 hPa 0 mm - 470 W/m² -
1787946904 22.78° C 55% 933.5 hPa 0 mm - 363 W/m² -
1787946602 22.22° C 57% 933.5 hPa 0 mm - 297 W/m² -
1787946298 21.67° C 59% 933.8 hPa 0 mm - 259 W/m² -
1787945998 22.22° C 58% 933.8 hPa 0 mm - 289 W/m² -
1787945697 22.22° C 56% 933.9 hPa 0 mm - 237 W/m² -
1787945392 22.78° C 54% 933.9 hPa 0 mm - 176 W/m² -
1787945088 23.33° C 52% 933.8 hPa 0 mm - 153 W/m² -
1787944784 23.89° C 53% 933.7 hPa 0 mm - 96 W/m² -
1787944481 23.89° C 49% 933.4 hPa 0 mm - 103 W/m² -
1787944176 23.89° C 50% 933.1 hPa 0 mm - 150 W/m² -
1787943876 23.89° C 51% 933.2 hPa 0 mm - 177 W/m² -
1787943571 23.89° C 51% 933.2 hPa 0 mm - 191 W/m² -
1787943266 23.89° C 51% 933.3 hPa 0 mm - 221 W/m² -
1787942965 24.44° C 47% 933.3 hPa 0 mm - 154 W/m² -
1787942662 25° C 43% 933.1 hPa 0 mm - 102 W/m² -
1787942361 25.56° C 40% 933 hPa 0 mm - 89 W/m² -
1787942056 26.11° C 38% 932.9 hPa 0 mm - 84 W/m² -
1787941752 26.11° C 37% 932.8 hPa 0 mm - 72 W/m² -
1787941450 26.11° C 37% 932.6 hPa 0 mm - 64 W/m² -
1787941149 26.11° C 37% 932.7 hPa 0 mm - 64 W/m² -
1787940845 26.11° C 38% 932.3 hPa 0 mm - 71 W/m² -
1787940542 26.67° C 37% 932.4 hPa 0 mm - 88 W/m² -
1787940237 26.67° C 36% 932.4 hPa 0 mm - 121 W/m² -
1787939932 27.22° C 36% 932.3 hPa 0 mm - 161 W/m² -

* Rain latest hour (hover to see other rain measurements)
** Current wind speed in m/s (hover to see current wind gust speed)